Time;durP1;ratioP1;P1;durP2;ratioP2;P2;SDS_P1;SDS_P2;PMS_P1;PMS_P2;Temp;Humidity;BMP_temperature;BMP_pressure;BME280_temperature;BME280_humidity;BME280_pressure;Samples;Min_cycle;Max_cycle;Signal;HPM_P1;HPM_P2
2023/05/14 00:00:00;;;;;;;32.50;18.00;;;;;;;8.52;54.36;99734.34;105207;1256;96723;-79
2023/05/14 00:02:28;;;;;;;31.40;18.10;;;;;;;8.48;54.28;99733.09;105197;1257;110928;-83
2023/05/14 00:05:06;;;;;;;29.90;16.30;;;;;;;8.44;54.45;99737.21;105192;1253;96599;-79
2023/05/14 00:07:34;;;;;;;27.00;15.00;;;;;;;8.43;54.48;99737.42;105176;1256;105874;-79
2023/05/14 00:10:02;;;;;;;26.50;14.20;;;;;;;8.42;54.49;99737.33;105155;1257;96559;-79
2023/05/14 00:12:30;;;;;;;29.00;16.10;;;;;;;8.38;54.82;99739.98;105155;1256;97184;-80
2023/05/14 00:14:58;;;;;;;27.00;14.90;;;;;;;8.35;54.69;99734.67;105166;1257;110342;-80
2023/05/14 00:17:26;;;;;;;29.90;16.20;;;;;;;8.32;54.82;99733.39;105229;1254;96955;-80
2023/05/14 00:19:54;;;;;;;27.50;14.90;;;;;;;8.28;54.74;99729.71;105138;1264;107662;-80
2023/05/14 00:22:22;;;;;;;27.10;14.80;;;;;;;8.21;54.64;99729.39;105222;1258;96641;-80
2023/05/14 00:24:50;;;;;;;24.80;14.30;;;;;;;8.16;54.74;99724.88;105258;1264;96673;-80
2023/05/14 00:27:18;;;;;;;28.60;16.20;;;;;;;8.11;54.81;99721.26;105152;1257;111858;-80
2023/05/14 00:29:45;;;;;;;27.40;14.50;;;;;;;8.09;54.85;99716.79;105074;1253;96656;-79
2023/05/14 00:32:14;;;;;;;29.20;14.30;;;;;;;8.08;54.86;99713.46;105173;1257;106756;-80
2023/05/14 00:34:42;;;;;;;27.40;14.40;;;;;;;8.02;55.07;99707.95;105107;1257;96683;-81
2023/05/14 00:37:10;;;;;;;29.60;15.70;;;;;;;7.98;54.97;99710.10;105198;1257;96593;-84
2023/05/14 00:39:37;;;;;;;30.50;14.30;;;;;;;7.97;55.32;99712.42;105340;1256;110143;-80
2023/05/14 00:42:05;;;;;;;30.60;15.80;;;;;;;7.94;55.09;99716.45;105310;1253;98048;-80
2023/05/14 00:44:34;;;;;;;29.80;15.70;;;;;;;7.94;55.25;99714.86;105106;1257;107833;-80
2023/05/14 00:47:03;;;;;;;28.10;14.70;;;;;;;7.90;55.38;99716.30;105120;1275;96619;-81
2023/05/14 00:49:32;;;;;;;25.50;14.60;;;;;;;7.84;55.50;99714.34;105231;1256;96610;-80
2023/05/14 00:52:01;;;;;;;24.70;13.80;;;;;;;7.79;55.13;99714.21;105192;1257;109781;-79
2023/05/14 00:54:29;;;;;;;30.30;16.00;;;;;;;7.79;55.39;99715.48;105160;1257;96593;-79
2023/05/14 00:57:06;;;;;;;31.70;16.30;;;;;;;7.75;55.46;99715.81;105093;1256;106509;-82
2023/05/14 00:59:34;;;;;;;27.10;15.60;;;;;;;7.75;55.51;99716.16;105153;1258;96592;-80
2023/05/14 01:02:02;;;;;;;29.40;15.40;;;;;;;7.72;55.72;99709.98;105179;1254;96629;-80
2023/05/14 01:04:30;;;;;;;28.70;16.20;;;;;;;7.66;55.68;99712.20;105202;1257;110258;-80
2023/05/14 01:07:35;;;;;;;28.50;16.00;;;;;;;7.64;55.78;99710.21;105153;1267;96683;-80
2023/05/14 01:10:09;;;;;;;27.10;14.30;;;;;;;7.63;56.03;99712.75;105163;1266;107658;-80
2023/05/14 01:12:56;;;;;;;28.40;14.70;;;;;;;7.61;55.89;99710.52;105165;1257;96600;-80
2023/05/14 01:15:27;;;;;;;28.60;15.50;;;;;;;7.63;56.14;99708.00;105152;1259;97636;-80
2023/05/14 01:18:01;;;;;;;34.00;17.10;;;;;;;7.63;56.15;99710.60;105291;1257;109902;-80
2023/05/14 01:20:29;;;;;;;30.80;17.20;;;;;;;7.63;55.96;99712.08;105210;1258;96612;-79
2023/05/14 01:22:57;;;;;;;29.00;17.00;;;;;;;7.64;56.19;99713.23;105256;1266;108929;-81
2023/05/14 01:25:26;;;;;;;29.80;16.60;;;;;;;7.59;56.21;99713.63;105128;1269;96645;-80
2023/05/14 01:28:16;;;;;;;33.20;17.40;;;;;;;7.56;56.10;99715.37;105140;1256;97807;-80
2023/05/14 01:30:50;;;;;;;28.40;16.10;;;;;;;7.54;56.33;99717.77;105162;1257;110334;-81
2023/05/14 01:33:20;;;;;;;28.90;15.60;;;;;;;7.47;56.01;99714.56;105166;1256;96619;-79
2023/05/14 01:35:49;;;;;;;27.90;15.50;;;;;;;7.43;56.10;99714.27;105147;1257;107425;-80
2023/05/14 01:38:19;;;;;;;28.20;15.20;;;;;;;7.37;56.45;99713.84;105110;1264;97820;-80
2023/05/14 01:40:48;;;;;;;29.20;15.00;;;;;;;7.31;56.31;99714.85;105171;1257;96635;-80
2023/05/14 01:43:17;;;;;;;28.40;15.20;;;;;;;7.28;56.53;99708.98;105194;1267;109927;-78
2023/05/14 01:45:46;;;;;;;31.60;16.20;;;;;;;7.20;56.47;99712.88;105254;1255;96689;-81
2023/05/14 01:48:14;;;;;;;29.20;14.70;;;;;;;7.13;56.66;99711.64;105139;1256;108760;-80
2023/05/14 01:50:42;;;;;;;32.30;17.90;;;;;;;7.06;56.43;99712.85;105106;1255;96721;-80
2023/05/14 01:53:13;;;;;;;30.50;18.10;;;;;;;7.06;56.65;99708.98;105182;1257;96590;-80
2023/05/14 01:55:41;;;;;;;35.10;18.30;;;;;;;7.07;56.75;99701.85;105121;1256;109078;-80
2023/05/14 01:58:10;;;;;;;34.10;18.30;;;;;;;7.08;56.69;99703.25;105177;1256;96652;-78
2023/05/14 02:00:37;;;;;;;29.50;16.00;;;;;;;7.05;56.78;99706.02;105144;1258;106522;-79
2023/05/14 02:03:05;;;;;;;30.00;18.10;;;;;;;6.98;56.70;99706.52;105166;1270;97633;-80
2023/05/14 02:05:33;;;;;;;33.70;16.70;;;;;;;6.92;56.97;99704.48;105118;1255;96519;-80
2023/05/14 02:08:01;;;;;;;33.70;17.60;;;;;;;6.91;56.85;99700.35;105155;1255;110789;-79
2023/05/14 02:10:30;;;;;;;30.80;17.20;;;;;;;6.90;56.79;99698.78;105152;1256;96610;-79
2023/05/14 02:12:58;;;;;;;33.60;18.80;;;;;;;6.90;56.94;99690.34;105140;1266;107081;-80
2023/05/14 02:15:26;;;;;;;33.70;18.70;;;;;;;6.93;57.12;99685.79;105149;1256;96615;-80
2023/05/14 02:17:53;;;;;;;30.40;17.60;;;;;;;6.92;57.22;99683.02;105153;1257;96618;-79
2023/05/14 02:20:21;;;;;;;32.00;18.70;;;;;;;6.86;57.17;99686.48;105183;1257;109005;-79
2023/05/14 02:22:50;;;;;;;33.20;19.30;;;;;;;6.78;57.31;99687.00;105168;1268;97393;-78
2023/05/14 02:25:18;;;;;;;31.00;18.80;;;;;;;6.75;57.18;99685.73;105140;1254;108897;-80
2023/05/14 02:27:48;;;;;;;33.10;18.10;;;;;;;6.79;57.15;99686.10;105177;1260;96591;-80
2023/05/14 02:30:16;;;;;;;34.00;20.60;;;;;;;6.81;57.42;99689.88;105194;1257;96610;-79
2023/05/14 02:32:44;;;;;;;38.00;21.70;;;;;;;6.85;57.34;99684.42;105114;1256;111141;-79
2023/05/14 02:35:13;;;;;;;35.10;21.40;;;;;;;6.87;57.48;99683.79;105218;1256;97514;-80
2023/05/14 02:37:41;;;;;;;39.40;23.10;;;;;;;6.88;57.35;99680.92;105171;1264;107349;-80
2023/05/14 02:40:10;;;;;;;38.10;22.30;;;;;;;6.89;57.48;99679.64;105155;1257;97888;-79
2023/05/14 02:42:38;;;;;;;37.40;22.60;;;;;;;6.91;57.73;99679.70;105176;1254;96580;-79
2023/05/14 02:45:07;;;;;;;37.80;22.90;;;;;;;6.92;57.65;99681.95;105147;1254;110378;-78
2023/05/14 02:47:34;;;;;;;36.30;20.10;;;;;;;6.91;57.86;99684.11;105229;1256;97885;-80
2023/05/14 02:50:05;;;;;;;33.30;20.60;;;;;;;6.90;57.79;99688.05;105093;1258;107207;-79
2023/05/14 02:52:34;;;;;;;37.20;21.50;;;;;;;6.92;57.92;99690.06;105159;1256;97928;-80
2023/05/14 02:55:02;;;;;;;36.50;22.10;;;;;;;6.98;57.95;99688.52;105126;1253;96633;-79
2023/05/14 02:57:31;;;;;;;38.20;20.80;;;;;;;7.04;57.87;99685.27;105139;1254;108776;-80
2023/05/14 02:59:59;;;;;;;32.10;19.90;;;;;;;7.08;58.07;99687.17;105118;1254;96704;-79
2023/05/14 03:02:27;;;;;;;36.90;20.60;;;;;;;7.10;58.13;99685.16;105166;1254;107927;-79
2023/05/14 03:04:59;;;;;;;37.50;20.10;;;;;;;7.12;57.95;99683.81;105131;1257;96642;-79
2023/05/14 03:07:27;;;;;;;34.00;19.80;;;;;;;7.16;58.24;99681.13;105142;1256;96621;-80
2023/05/14 03:09:55;;;;;;;35.20;20.50;;;;;;;7.18;58.31;99684.05;105159;1256;110208;-79
2023/05/14 03:12:23;;;;;;;35.60;20.70;;;;;;;7.23;58.12;99683.66;105150;1257;96940;-80
2023/05/14 03:14:51;;;;;;;34.90;19.80;;;;;;;7.28;58.23;99677.75;105159;1256;107864;-81
2023/05/14 03:17:19;;;;;;;35.60;19.00;;;;;;;7.30;58.45;99677.11;105211;1256;96663;-79
2023/05/14 03:19:47;;;;;;;34.40;20.20;;;;;;;7.30;58.48;99676.76;105194;1256;96575;-78
2023/05/14 03:22:15;;;;;;;33.60;20.10;;;;;;;7.34;58.53;99677.08;105086;1256;110811;-81
2023/05/14 03:24:43;;;;;;;33.20;20.00;;;;;;;7.40;58.60;99671.67;105080;1257;97559;-78
2023/05/14 03:27:14;;;;;;;32.90;18.10;;;;;;;7.44;58.51;99672.88;105106;1257;106844;-80
2023/05/14 03:29:42;;;;;;;32.00;19.10;;;;;;;7.44;58.57;99674.49;105187;1257;96674;-79
2023/05/14 03:32:10;;;;;;;32.90;19.40;;;;;;;7.40;58.62;99675.54;105155;1257;96593;-79
2023/05/14 03:34:38;;;;;;;30.30;18.20;;;;;;;7.41;58.72;99678.52;105191;1257;109179;-80
2023/05/14 03:37:06;;;;;;;31.90;17.30;;;;;;;7.40;58.63;99677.87;105154;1256;96609;-81
2023/05/14 03:39:33;;;;;;;32.00;16.80;;;;;;;7.40;58.73;99682.25;105167;1257;107889;-79
2023/05/14 03:42:01;;;;;;;31.90;18.70;;;;;;;7.42;58.80;99679.52;105171;1257;96768;-79
2023/05/14 03:44:29;;;;;;;33.20;19.40;;;;;;;7.46;58.77;99671.38;105160;1257;96613;-79
2023/05/14 03:47:04;;;;;;;30.90;17.30;;;;;;;7.54;58.86;99670.83;105093;1257;109165;-80
2023/05/14 03:49:32;;;;;;;32.40;18.70;;;;;;;7.59;58.94;99669.48;105088;1257;96651;-80
2023/05/14 03:52:00;;;;;;;30.90;17.00;;;;;;;7.65;59.03;99671.83;105126;1253;106319;-79
2023/05/14 03:54:28;;;;;;;31.20;18.90;;;;;;;7.69;59.02;99667.59;105113;1257;96684;-79
2023/05/14 03:56:56;;;;;;;29.20;17.00;;;;;;;7.73;59.03;99669.89;105148;1257;97570;-80
2023/05/14 03:59:24;;;;;;;32.30;20.80;;;;;;;7.78;59.12;99667.48;105149;1257;109866;-78
2023/05/14 04:01:52;;;;;;;31.00;19.60;;;;;;;7.90;59.30;99661.96;105126;1254;97877;-81
2023/05/14 04:04:21;;;;;;;33.20;20.30;;;;;;;7.99;59.38;99658.83;105096;1256;108807;-79
2023/05/14 04:06:49;;;;;;;39.00;24.40;;;;;;;8.07;59.60;99652.23;105161;1260;96601;-78
2023/05/14 04:09:17;;;;;;;37.80;22.90;;;;;;;8.17;59.75;99651.70;105142;1257;96606;-81
2023/05/14 04:11:45;;;;;;;39.20;23.60;;;;;;;8.27;59.67;99650.13;105195;1261;113256;-78
2023/05/14 04:14:13;;;;;;;36.40;22.50;;;;;;;8.41;59.89;99653.39;105148;1258;96689;-79
2023/05/14 04:16:41;;;;;;;37.60;24.20;;;;;;;8.57;59.77;99655.02;105136;1266;107258;-79
2023/05/14 04:19:10;;;;;;;39.40;23.50;;;;;;;8.72;59.78;99652.13;105120;1254;98038;-79
2023/05/14 04:21:38;;;;;;;34.80;23.50;;;;;;;8.87;59.78;99648.98;105157;1257;96930;-80
2023/05/14 04:24:06;;;;;;;41.00;24.40;;;;;;;8.99;59.71;99646.89;105079;1257;110428;-79
2023/05/14 04:26:34;;;;;;;41.70;24.50;;;;;;;9.05;59.43;99648.48;105125;1260;96609;-79
2023/05/14 04:29:02;;;;;;;40.10;23.50;;;;;;;9.07;59.49;99646.65;105097;1266;108643;-81
2023/05/14 04:31:31;;;;;;;38.90;24.00;;;;;;;9.09;59.78;99643.87;105139;1253;96670;-79
2023/05/14 04:34:01;;;;;;;39.30;22.40;;;;;;;9.14;60.01;99640.19;105144;1257;97540;-80
2023/05/14 04:36:29;;;;;;;37.80;23.70;;;;;;;9.22;60.08;99641.48;105135;1254;109302;-78
2023/05/14 04:38:56;;;;;;;38.80;23.70;;;;;;;9.32;60.22;99640.62;105140;1257;97072;-80
2023/05/14 04:41:25;;;;;;;38.60;22.90;;;;;;;9.41;60.40;99643.78;105100;1266;109248;-80
2023/05/14 04:43:55;;;;;;;37.40;22.80;;;;;;;9.50;60.51;99644.48;105129;1257;96632;-79
2023/05/14 04:46:23;;;;;;;33.00;21.50;;;;;;;9.60;60.53;99648.86;105196;1256;96596;-80
2023/05/14 04:48:52;;;;;;;35.60;22.40;;;;;;;9.70;60.43;99651.63;105270;1257;109427;-79
2023/05/14 04:51:20;;;;;;;35.40;21.60;;;;;;;9.82;60.39;99651.63;105160;1257;96612;-81
2023/05/14 04:53:48;;;;;;;33.00;21.00;;;;;;;10.11;60.91;99648.82;105045;1257;106968;-82
2023/05/14 04:56:15;;;;;;;34.30;20.70;;;;;;;10.57;61.57;99646.39;105156;1258;96674;-80
2023/05/14 04:58:43;;;;;;;29.70;17.20;;;;;;;10.72;60.89;99644.70;105159;1267;96594;-79
2023/05/14 05:01:12;;;;;;;26.20;14.40;;;;;;;10.78;60.52;99641.03;105178;1257;110167;-79
2023/05/14 05:03:40;;;;;;;24.50;12.80;;;;;;;10.82;60.52;99641.79;105442;1258;96603;-80
2023/05/14 05:06:11;;;;;;;22.10;11.10;;;;;;;10.87;60.47;99642.16;105240;1256;108801;-79
2023/05/14 05:08:39;;;;;;;26.40;13.00;;;;;;;10.96;60.35;99643.05;105142;1268;96805;-79
2023/05/14 05:11:07;;;;;;;23.50;11.40;;;;;;;11.01;60.55;99640.89;105207;1256;96580;-80
2023/05/14 05:13:35;;;;;;;24.40;11.30;;;;;;;11.07;60.68;99637.84;105172;1257;108979;-79
2023/05/14 05:16:04;;;;;;;20.50;9.70;;;;;;;11.15;60.80;99634.52;105252;1256;96612;-79
2023/05/14 05:18:32;;;;;;;18.00;8.40;;;;;;;11.24;60.75;99632.49;105836;1253;107961;-78
2023/05/14 05:21:00;;;;;;;21.30;8.80;;;;;;;11.35;60.64;99631.77;108268;1253;96467;-77
2023/05/14 05:23:28;;;;;;;17.80;8.20;;;;;;;11.45;60.67;99630.56;105554;1260;96644;-77
2023/05/14 05:25:56;;;;;;;17.30;7.10;;;;;;;11.54;60.62;99627.83;106281;1256;109340;-77
2023/05/14 05:28:23;;;;;;;17.70;7.00;;;;;;;11.64;60.68;99628.95;105332;1257;97518;-76
2023/05/14 05:30:51;;;;;;;13.10;6.70;;;;;;;11.73;60.65;99626.04;105301;1268;106572;-76
2023/05/14 05:33:20;;;;;;;15.90;6.90;;;;;;;11.80;60.58;99624.65;105470;1256;97425;-77
2023/05/14 05:35:48;;;;;;;15.00;6.20;;;;;;;11.87;60.53;99619.89;105282;1257;97513;-78
2023/05/14 05:38:17;;;;;;;14.10;6.20;;;;;;;11.94;60.65;99620.88;108230;1256;109983;-75
2023/05/14 05:40:47;;;;;;;14.70;6.10;;;;;;;12.01;60.67;99622.39;105180;1257;97185;-80
2023/05/14 05:43:15;;;;;;;10.70;5.50;;;;;;;12.08;60.57;99619.04;105132;1257;109614;-80
2023/05/14 05:45:44;;;;;;;14.60;5.70;;;;;;;12.15;60.50;99614.48;105153;1256;96625;-78
2023/05/14 05:48:13;;;;;;;12.90;6.10;;;;;;;12.20;60.60;99615.12;105213;1254;96606;-77
2023/05/14 05:50:43;;;;;;;21.40;10.50;;;;;;;12.28;60.55;99613.04;105101;1254;109018;-78
2023/05/14 05:53:11;;;;;;;17.70;8.20;;;;;;;12.31;60.48;99613.67;105194;1268;96584;-78
2023/05/14 05:55:39;;;;;;;19.50;9.10;;;;;;;12.34;60.52;99612.00;105137;1267;107620;-77
2023/05/14 05:58:07;;;;;;;18.10;8.70;;;;;;;12.38;60.46;99607.35;105123;1257;96596;-77
2023/05/14 06:00:35;;;;;;;14.20;6.10;;;;;;;12.40;60.64;99608.41;105172;1257;96589;-77
2023/05/14 06:03:04;;;;;;;15.10;6.80;;;;;;;12.48;60.56;99604.08;105226;1256;110981;-78
2023/05/14 06:05:32;;;;;;;14.80;7.10;;;;;;;12.58;60.73;99606.83;105171;1254;97923;-76
2023/05/14 06:08:00;;;;;;;15.40;6.70;;;;;;;12.64;60.55;99609.75;105176;1257;108586;-76
2023/05/14 06:10:28;;;;;;;15.70;6.50;;;;;;;12.68;60.58;99609.27;105207;1267;96753;-77
2023/05/14 06:12:56;;;;;;;13.60;6.10;;;;;;;12.76;60.62;99610.80;105201;1257;96581;-77
2023/05/14 06:15:24;;;;;;;15.50;6.40;;;;;;;12.86;60.56;99610.65;105109;1269;109920;-77
2023/05/14 06:18:01;;;;;;;14.40;6.20;;;;;;;12.94;60.58;99615.54;105112;1257;97815;-81
2023/05/14 06:20:28;;;;;;;10.50;4.60;;;;;;;13.00;60.43;99616.55;105146;1254;107883;-78
2023/05/14 06:22:57;;;;;;;15.10;6.30;;;;;;;13.07;60.46;99614.94;105215;1256;96665;-76
2023/05/14 06:25:25;;;;;;;14.60;6.10;;;;;;;13.13;60.47;99616.48;105294;1257;96924;-77
2023/05/14 06:27:52;;;;;;;17.30;7.30;;;;;;;13.19;60.45;99619.58;105043;1257;108187;-78
2023/05/14 06:30:21;;;;;;;16.20;7.00;;;;;;;13.21;60.38;99618.18;105125;1270;96532;-78
2023/05/14 06:32:50;;;;;;;13.80;6.40;;;;;;;13.24;60.37;99610.17;105116;1264;107930;-78
2023/05/14 06:35:18;;;;;;;15.80;6.70;;;;;;;13.28;60.41;99610.36;105330;1254;97065;-78
2023/05/14 06:37:46;;;;;;;15.80;6.90;;;;;;;13.31;60.47;99605.15;105088;1254;96596;-76
2023/05/14 06:40:14;;;;;;;15.20;7.50;;;;;;;13.37;60.42;99603.46;105130;1267;109448;-79
2023/05/14 06:42:42;;;;;;;16.10;7.70;;;;;;;13.43;60.37;99598.61;105131;1256;96533;-80
2023/05/14 06:45:20;;;;;;;12.80;5.50;;;;;;;13.45;60.42;99589.90;105132;1267;105756;-76
2023/05/14 06:47:48;;;;;;;12.20;4.90;;;;;;;13.51;60.30;99589.92;105165;1257;97803;-77
2023/05/14 06:50:16;;;;;;;13.90;5.30;;;;;;;13.62;60.47;99588.23;104988;1260;96644;-77
2023/05/14 06:52:45;;;;;;;12.40;5.90;;;;;;;13.73;60.33;99584.23;105130;1267;111158;-77
2023/05/14 06:55:18;;;;;;;16.70;5.90;;;;;;;13.75;60.37;99578.70;105208;1266;97515;-76
2023/05/14 06:57:46;;;;;;;12.90;5.70;;;;;;;13.81;60.47;99575.92;105095;1257;106881;-77
2023/05/14 07:00:15;;;;;;;12.10;5.30;;;;;;;13.93;60.38;99579.95;105127;1275;96590;-77
2023/05/14 07:02:45;;;;;;;13.60;5.80;;;;;;;13.98;60.31;99582.08;105131;1254;97569;-77
2023/05/14 07:05:13;;;;;;;15.70;5.30;;;;;;;14.02;60.36;99584.61;105093;1266;109879;-80
2023/05/14 07:07:41;;;;;;;11.80;4.80;;;;;;;14.08;60.28;99580.98;105165;1254;96651;-77
2023/05/14 07:10:10;;;;;;;12.20;5.00;;;;;;;14.14;60.29;99577.23;105198;1257;108036;-82
2023/05/14 07:12:38;;;;;;;14.00;6.30;;;;;;;14.21;60.19;99573.55;105191;1257;96658;-77
2023/05/14 07:15:07;;;;;;;15.30;6.10;;;;;;;14.20;60.14;99568.74;105139;1257;96606;-78
2023/05/14 07:17:35;;;;;;;13.80;5.90;;;;;;;14.23;60.24;99564.61;105196;1257;110100;-78
2023/05/14 07:20:03;;;;;;;14.90;6.10;;;;;;;14.26;60.18;99567.55;105206;1266;97946;-78
2023/05/14 07:22:31;;;;;;;11.80;5.50;;;;;;;14.28;60.11;99568.15;107966;1254;107648;-77
2023/05/14 07:24:59;;;;;;;10.10;4.30;;;;;;;14.30;60.03;99567.95;106085;1257;97246;-79
2023/05/14 07:27:27;;;;;;;10.80;4.80;;;;;;;14.33;60.03;99561.30;105754;1256;96594;-77
2023/05/14 07:29:55;;;;;;;10.20;4.40;;;;;;;14.35;59.96;99558.32;105296;1257;109129;-76
2023/05/14 07:32:24;;;;;;;8.60;4.30;;;;;;;14.42;60.17;99554.34;105265;1268;96568;-76
2023/05/14 07:34:52;;;;;;;11.20;4.90;;;;;;;14.51;60.09;99553.24;105950;1256;106449;-78
2023/05/14 07:37:21;;;;;;;11.60;5.00;;;;;;;14.56;59.82;99549.48;105135;1257;97059;-77
2023/05/14 07:39:51;;;;;;;12.30;5.10;;;;;;;14.56;59.93;99545.52;105195;1260;97931;-76
2023/05/14 07:42:20;;;;;;;10.70;5.10;;;;;;;14.59;60.09;99545.47;105146;1266;110434;-76
2023/05/14 07:45:03;;;;;;;10.30;4.70;;;;;;;14.66;59.79;99543.65;105106;1266;96507;-76
2023/05/14 07:47:31;;;;;;;9.60;4.50;;;;;;;14.69;59.87;99545.80;105160;1267;107780;-77
2023/05/14 07:49:59;;;;;;;14.00;5.40;;;;;;;14.73;59.73;99543.65;105110;1259;96599;-77
2023/05/14 07:52:28;;;;;;;8.10;4.40;;;;;;;14.78;59.80;99541.47;105120;1254;96525;-79
2023/05/14 07:54:56;;;;;;;11.90;4.60;;;;;;;14.89;59.70;99542.74;105119;1270;109344;-78
2023/05/14 07:57:25;;;;;;;12.10;4.50;;;;;;;14.94;59.55;99550.02;105162;1257;97802;-78
2023/05/14 07:59:53;;;;;;;11.70;4.70;;;;;;;14.97;59.65;99554.17;105285;1257;107811;-79
2023/05/14 08:02:21;;;;;;;12.90;4.10;;;;;;;15.02;59.71;99551.25;105150;1254;96726;-79
2023/05/14 08:04:49;;;;;;;11.30;4.60;;;;;;;15.09;59.48;99547.85;105229;1257;96658;-79
2023/05/14 08:07:18;;;;;;;9.60;4.10;;;;;;;15.20;59.38;99552.33;105171;1266;111177;-78
2023/05/14 08:09:46;;;;;;;7.60;3.80;;;;;;;15.30;59.35;99553.72;105154;1254;97090;-80
2023/05/14 08:12:14;;;;;;;6.80;4.00;;;;;;;15.40;59.29;99553.48;105091;1257;108690;-82
2023/05/14 08:14:43;;;;;;;7.40;3.60;;;;;;;15.45;59.18;99541.58;105123;1256;97541;-80
2023/05/14 08:17:11;;;;;;;7.60;3.60;;;;;;;15.51;59.14;99532.73;105093;1264;97620;-79
2023/05/14 08:19:39;;;;;;;11.00;4.10;;;;;;;15.56;59.04;99528.91;105111;1265;108318;-80
2023/05/14 08:22:07;;;;;;;8.60;4.00;;;;;;;15.58;59.10;99533.86;105100;1267;96602;-78
2023/05/14 08:24:35;;;;;;;9.60;3.80;;;;;;;15.64;59.09;99532.88;105159;1257;106512;-82
2023/05/14 08:27:04;;;;;;;6.80;3.70;;;;;;;15.70;58.90;99525.16;105180;1256;96573;-80
2023/05/14 08:29:31;;;;;;;9.50;4.00;;;;;;;15.75;59.05;99524.33;105251;1257;96606;-77
2023/05/14 08:32:00;;;;;;;9.30;4.60;;;;;;;15.81;58.70;99520.12;107693;1256;151659;-75
2023/05/14 08:34:38;;;;;;;8.70;4.20;;;;;;;15.92;58.91;99515.79;105317;1257;97530;-76
2023/05/14 08:37:06;;;;;;;13.40;4.60;;;;;;;16.00;58.82;99513.86;105306;1266;107557;-76
2023/05/14 08:39:34;;;;;;;8.60;4.30;;;;;;;16.07;58.66;99510.15;105201;1267;97411;-80
2023/05/14 08:42:06;;;;;;;11.10;4.70;;;;;;;16.22;58.41;99504.44;105202;1256;96702;-78
2023/05/14 08:44:44;;;;;;;8.60;4.30;;;;;;;16.41;58.63;99502.90;105113;1263;110759;-79
2023/05/14 08:47:16;;;;;;;8.30;3.40;;;;;;;16.61;58.64;99501.66;105143;1257;96597;-80
2023/05/14 08:49:57;;;;;;;8.20;3.80;;;;;;;16.74;58.43;99494.90;105121;1266;107715;-78
2023/05/14 08:52:26;;;;;;;8.80;4.00;;;;;;;16.79;57.98;99495.90;105105;1258;97501;-78
2023/05/14 08:54:55;;;;;;;8.70;4.00;;;;;;;16.85;58.23;99496.44;105155;1257;96670;-82
2023/05/14 08:57:25;;;;;;;7.60;3.80;;;;;;;16.88;58.04;99494.38;105288;1260;111048;-79
2023/05/14 08:59:53;;;;;;;5.60;3.60;;;;;;;16.90;57.67;99491.98;105221;1268;98027;-79
2023/05/14 09:02:28;;;;;;;8.20;3.80;;;;;;;16.99;57.70;99493.17;105140;1258;107885;-79
2023/05/14 09:04:58;;;;;;;5.70;3.40;;;;;;;17.11;57.88;99489.55;105123;1260;96618;-81
2023/05/14 09:07:27;;;;;;;6.00;3.60;;;;;;;17.16;57.87;99492.70;105156;1259;97905;-81
2023/05/14 09:09:55;;;;;;;7.50;3.20;;;;;;;17.22;57.65;99492.08;105137;1259;109208;-79
2023/05/14 09:12:23;;;;;;;8.50;3.50;;;;;;;17.29;57.21;99495.41;105135;1253;96603;-81
2023/05/14 09:14:51;;;;;;;12.10;4.00;;;;;;;17.31;57.31;99493.96;105174;1266;106863;-81
2023/05/14 09:17:19;;;;;;;5.70;3.50;;;;;;;17.30;57.30;99491.25;105167;1257;97917;-82
2023/05/14 09:19:48;;;;;;;8.00;3.00;;;;;;;17.30;57.07;99482.95;105153;1260;96575;-81
2023/05/14 09:22:17;;;;;;;4.30;2.30;;;;;;;17.38;56.97;99479.11;105140;1257;110813;-82
2023/05/14 09:24:45;;;;;;;5.00;2.80;;;;;;;17.43;56.91;99476.55;105196;1267;97804;-81
2023/05/14 09:27:20;;;;;;;5.80;2.50;;;;;;;17.44;56.52;99472.46;105230;1254;107540;-81
2023/05/14 09:29:48;;;;;;;8.10;3.40;;;;;;;17.55;56.42;99468.77;105225;1257;96607;-83
2023/05/14 09:32:16;;;;;;;6.10;2.70;;;;;;;17.66;56.58;99468.27;105151;1257;96695;-83
2023/05/14 09:34:44;;;;;;;7.00;3.10;;;;;;;17.72;56.53;99470.76;105152;1260;108855;-82
2023/05/14 09:37:12;;;;;;;8.30;3.60;;;;;;;17.77;56.16;99466.65;105207;1256;96781;-81
2023/05/14 09:39:40;;;;;;;5.80;2.90;;;;;;;17.82;56.36;99460.26;105072;1265;106825;-83
2023/05/14 09:42:08;;;;;;;4.40;2.60;;;;;;;17.86;56.22;99462.25;105147;1267;97522;-82
2023/05/14 09:44:36;;;;;;;6.60;2.90;;;;;;;17.90;55.99;99456.48;105236;1267;96721;-79
2023/05/14 09:47:08;;;;;;;8.70;3.10;;;;;;;17.93;56.04;99455.45;105253;1266;109429;-82
2023/05/14 09:49:36;;;;;;;7.90;3.30;;;;;;;18.00;56.02;99447.81;105281;1267;96622;-82
2023/05/14 09:52:05;;;;;;;9.50;3.80;;;;;;;18.04;55.89;99451.60;105151;1253;107626;-82
2023/05/14 09:54:34;;;;;;;9.00;3.70;;;;;;;18.11;55.81;99444.59;105152;1259;97944;-82
2023/05/14 09:57:02;;;;;;;7.40;2.80;;;;;;;18.15;55.45;99444.86;105152;1257;96588;-82
2023/05/14 09:59:30;;;;;;;5.60;2.70;;;;;;;18.14;55.45;99439.80;105218;1260;110318;-81
2023/05/14 10:02:32;;;;;;;;;;;;;;;;;;;;;
2023/05/14 10:05:22;;;;;;;5.10;2.90;;;;;;;18.06;55.13;99432.32;105346;1263;107609;-81
2023/05/14 10:07:52;;;;;;;6.70;3.30;;;;;;;17.96;54.57;99436.65;105158;1264;96568;-84
2023/05/14 10:10:23;;;;;;;7.00;3.40;;;;;;;17.93;54.83;99432.36;105271;1253;97528;-82
2023/05/14 10:13:04;;;;;;;6.20;3.10;;;;;;;17.89;54.81;99426.41;105171;1259;109958;-82
2023/05/14 10:15:40;;;;;;;8.20;3.00;;;;;;;17.90;54.28;99424.40;105158;1264;96636;-83
2023/05/14 10:18:21;;;;;;;6.60;3.10;;;;;;;17.88;54.13;99416.48;105239;1256;107084;-81
2023/05/14 10:21:01;;;;;;;6.00;2.90;;;;;;;17.91;54.16;99415.25;105148;1260;96582;-80
2023/05/14 10:23:30;;;;;;;7.90;3.10;;;;;;;17.89;53.85;99412.09;105227;1266;96506;-83
2023/05/14 10:25:59;;;;;;;7.90;3.20;;;;;;;17.90;53.22;99408.73;105170;1257;109661;-83
2023/05/14 10:28:27;;;;;;;7.40;3.10;;;;;;;17.93;53.33;99396.28;105351;1257;96596;-82
2023/05/14 10:30:55;;;;;;;9.10;3.20;;;;;;;17.97;53.22;99396.79;105243;1256;107023;-83
2023/05/14 10:33:23;;;;;;;4.50;2.90;;;;;;;18.02;53.05;99398.25;105672;1256;96507;-81
2023/05/14 10:36:06;;;;;;;5.20;3.10;;;;;;;18.08;52.96;99400.91;106516;1257;97247;-81
2023/05/14 10:38:36;;;;;;;4.70;3.00;;;;;;;18.03;52.25;99395.87;105200;1266;107999;-82
2023/05/14 10:41:06;;;;;;;6.00;3.00;;;;;;;17.96;52.33;99389.55;105097;1260;96690;-83
2023/05/14 10:43:39;;;;;;;6.00;3.30;;;;;;;17.91;51.89;99395.25;105194;1266;108065;-85
2023/05/14 10:46:10;;;;;;;8.80;3.10;;;;;;;17.91;51.90;99392.39;105096;1257;96581;-81
2023/05/14 10:48:41;;;;;;;4.20;2.90;;;;;;;17.99;51.94;99389.63;105368;1255;96584;-81
2023/05/14 10:51:10;;;;;;;6.70;3.00;;;;;;;18.13;51.75;99394.36;105354;1257;111101;-80
2023/05/14 10:53:41;;;;;;;5.10;2.80;;;;;;;18.28;51.93;99387.85;105167;1258;97295;-82
2023/05/14 10:56:13;;;;;;;5.00;2.90;;;;;;;18.35;51.80;99381.17;105239;1258;108369;-82
2023/05/14 10:58:44;;;;;;;6.00;2.80;;;;;;;18.44;51.90;99380.85;105255;1256;97918;-81
2023/05/14 11:01:13;;;;;;;6.50;2.80;;;;;;;18.45;51.26;99374.98;105235;1258;96524;-80
2023/05/14 11:03:45;;;;;;;6.80;2.90;;;;;;;18.53;51.42;99370.59;105287;1256;110204;-82
2023/05/14 11:06:14;;;;;;;17.90;3.70;;;;;;;18.58;50.82;99364.54;105183;1257;97362;-80
2023/05/14 11:08:45;;;;;;;6.00;3.00;;;;;;;18.60;51.16;99359.64;105109;1266;106786;-83
2023/05/14 11:11:14;;;;;;;4.30;2.70;;;;;;;18.70;51.38;99354.09;105413;1259;96589;-81
2023/05/14 11:13:43;;;;;;;4.50;2.80;;;;;;;18.77;50.88;99346.32;105183;1267;96731;-83
2023/05/14 11:16:13;;;;;;;6.10;2.90;;;;;;;18.82;51.10;99336.96;105280;1256;111207;-81
2023/05/14 11:19:02;;;;;;;5.70;2.70;;;;;;;18.88;50.86;99329.19;105200;1259;96422;-82
2023/05/14 11:21:33;;;;;;;3.80;2.40;;;;;;;18.88;50.86;99331.99;105201;1257;107473;-81
2023/05/14 11:24:04;;;;;;;8.60;2.80;;;;;;;18.97;50.79;99338.48;105082;1267;98017;-81
2023/05/14 11:26:32;;;;;;;6.10;2.70;;;;;;;19.05;50.43;99329.08;105516;1254;98040;-82